Nearby METAR Reports

 

KOXC - Oxford/Waterbury, Connecticut, USA
Distance from station: NW 7mi, 11km
Updated: 09/24/2017 9:51pm
Clear
Clear
 Wind from calm
Wind: Calm
Temperature: 70°F , 21°C
Dew Point: 64°F , 18°C
Humidity: 83%
Barometer: 30.08 inHg , 1018.6 hPa
Clouds: Clear
Visibility: 10 miles , 16 km
2017/09/25 01:51 KOXC 250151Z AUTO 00000KT 10SM CLR 21/18 A3008 RMK AO2 SLP194 T02110178
KHVN - New Haven/Tweed, Connecticut, USA
Distance from station: SE 13mi, 20km
Updated: 09/24/2017 9:53pm
Clear
Clear
 Wind from calm
Wind: Calm
Temperature: 70°F , 21°C
Dew Point: 63°F , 17°C
Humidity: 78%
Barometer: 30.06 inHg , 1017.9 hPa
Clouds: Clear
Visibility: 10 miles , 16 km
2017/09/25 01:53 KHVN 250153Z 00000KT 10SM CLR 21/17 A3006 RMK AO2 SLP177 T02060172
 
KMMK - Meriden, Connecticut, USA
Distance from station: NE 13mi, 21km
Updated: 09/24/2017 9:53pm
Clear
Clear
 Wind from calm
Wind: Calm
Temperature: 68°F , 20°C
Dew Point: 64°F , 18°C
Humidity: 88%
Barometer: 30.05 inHg , 1017.6 hPa
Clouds: Clear
Visibility: 10 miles , 16 km
2017/09/25 01:53 KMMK 250153Z AUTO 00000KT 10SM CLR 20/18 A3005 RMK AO2 SLP174 T02000178
KBDR - Bridgeport, Connecticut, USA
Distance from station: SSW 17mi, 27km
Updated: 09/24/2017 9:52pm
Clear
Clear
 Wind from calm
Wind: Calm
Temperature: 73°F , 23°C
Dew Point: 64°F , 18°C
Humidity: 74%
Barometer: 30.05 inHg , 1017.6 hPa
Clouds: Clear
Visibility: 10 miles , 16 km
2017/09/25 01:52 KBDR 250152Z 00000KT 10SM CLR 23/18 A3005 RMK AO2 SLP176 T02330183
 
KDXR - Danbury, Connecticut, USA
Distance from station: W 23mi, 38km
Updated: 09/24/2017 9:53pm
Clear
Clear
 Wind from SW
Wind: SW 3 mph , 6 km/h
Temperature: 70°F , 21°C
Dew Point: 66°F , 19°C
Humidity: 88%
Barometer: 30.08 inHg , 1018.6 hPa
Clouds: Clear
Visibility: 10 miles , 16 km
2017/09/25 01:53 KDXR 250153Z 23003KT 10SM CLR 21/19 A3008 RMK AO2 SLP182 T02060194